createdAt,value
2022-12-11T00:01:40.005Z,5.10
2022-12-11T00:04:44.638Z,5.10
2022-12-11T00:07:47.694Z,5.00
2022-12-11T00:10:51.434Z,6.00
2022-12-11T00:13:54.489Z,5.20
2022-12-11T00:16:57.681Z,5.10
2022-12-11T00:20:02.034Z,5.00
2022-12-11T00:23:06.409Z,5.00
2022-12-11T00:26:13.060Z,5.00
2022-12-11T00:29:16.121Z,4.10
2022-12-11T00:32:19.039Z,4.80
2022-12-11T00:35:23.336Z,5.10
2022-12-11T00:38:26.634Z,5.30
2022-12-11T00:41:29.731Z,5.20
2022-12-11T00:44:32.667Z,5.30
2022-12-11T00:47:35.622Z,5.30
2022-12-11T00:50:41.405Z,5.20
2022-12-11T00:53:44.761Z,5.20
2022-12-11T00:56:48.315Z,5.20
2022-12-11T00:59:51.709Z,5.10
2022-12-11T01:02:54.909Z,5.10
2022-12-11T01:05:59.380Z,6.00
2022-12-11T01:09:20.089Z,5.80
2022-12-11T01:12:23.074Z,5.10
2022-12-11T01:15:29.971Z,5.00
2022-12-11T01:18:32.985Z,5.00
2022-12-11T01:21:37.345Z,5.00
2022-12-11T01:24:40.368Z,5.90
2022-12-11T01:27:43.521Z,4.90
2022-12-11T01:30:46.595Z,4.80
2022-12-11T01:33:49.881Z,4.80
2022-12-11T01:36:54.706Z,4.70
2022-12-11T01:39:57.721Z,4.70
2022-12-11T01:43:00.762Z,4.70
2022-12-11T01:46:04.004Z,4.50
2022-12-11T01:49:10.927Z,4.50
2022-12-11T01:52:20.635Z,4.40
2022-12-11T01:55:23.937Z,4.50
2022-12-11T01:58:31.864Z,4.50
2022-12-11T02:01:40.732Z,3.80
2022-12-11T02:04:45.645Z,4.60
2022-12-11T02:07:56.933Z,4.60
2022-12-11T02:11:10.313Z,4.60
2022-12-11T02:14:24.438Z,3.50
2022-12-11T02:17:38.798Z,4.60
2022-12-11T02:20:49.179Z,4.50
2022-12-11T02:24:25.982Z,4.50
2022-12-11T02:27:38.203Z,4.50
2022-12-11T02:30:46.817Z,4.50
2022-12-11T02:33:59.716Z,5.60
2022-12-11T02:37:10.155Z,3.40
2022-12-11T02:40:18.800Z,4.50
2022-12-11T02:43:24.416Z,4.50
2022-12-11T02:46:30.338Z,4.40
2022-12-11T02:49:35.094Z,4.40
2022-12-11T02:52:40.162Z,4.30
2022-12-11T02:55:46.781Z,4.30
2022-12-11T02:58:58.636Z,4.20
2022-12-11T03:02:04.713Z,4.10
2022-12-11T03:05:09.272Z,4.00
2022-12-11T03:08:12.838Z,3.80
2022-12-11T03:11:15.791Z,3.70
2022-12-11T03:14:19.058Z,3.50
2022-12-11T03:17:28.839Z,3.50
2022-12-11T03:20:40.125Z,3.40
2022-12-11T03:23:51.222Z,3.30
2022-12-11T03:27:05.608Z,3.20
2022-12-11T03:30:17.039Z,3.10
2022-12-11T03:33:30.552Z,3.10
2022-12-11T03:36:38.090Z,3.10
2022-12-11T03:39:47.390Z,2.90
2022-12-11T03:42:54.476Z,2.90
2022-12-11T03:46:00.333Z,2.80
2022-12-11T03:49:11.748Z,2.70
2022-12-11T03:52:17.755Z,2.70
2022-12-11T03:55:23.823Z,2.60
2022-12-11T03:58:27.029Z,2.60
2022-12-11T04:01:30.167Z,2.50
2022-12-11T04:04:34.487Z,3.40
2022-12-11T04:07:37.687Z,2.60
2022-12-11T04:10:42.011Z,2.60
2022-12-11T04:13:45.167Z,2.70
2022-12-11T04:16:47.284Z,2.70
2022-12-11T04:20:09.471Z,2.80
2022-12-11T04:23:33.757Z,4.00
2022-12-11T04:26:36.844Z,3.00
2022-12-11T04:29:39.799Z,3.00
2022-12-11T04:32:42.971Z,3.10
2022-12-11T04:35:47.362Z,3.10
2022-12-11T04:38:50.439Z,3.20
2022-12-11T04:41:53.416Z,3.30
2022-12-11T04:44:56.486Z,3.40
2022-12-11T04:47:59.626Z,3.50
2022-12-11T04:51:04.866Z,3.50
2022-12-11T04:54:07.778Z,3.60
2022-12-11T04:57:12.132Z,3.60
2022-12-11T05:00:17.226Z,3.70
2022-12-11T05:03:21.044Z,3.70
2022-12-11T05:06:25.428Z,3.70
2022-12-11T05:09:29.182Z,3.70
2022-12-11T05:12:33.609Z,3.70
2022-12-11T05:15:39.272Z,3.70
2022-12-11T05:18:42.582Z,4.40
2022-12-11T05:21:46.911Z,3.70
2022-12-11T05:24:49.885Z,3.70
2022-12-11T05:27:52.955Z,3.60
2022-12-11T05:31:00.664Z,3.60
2022-12-11T05:34:03.913Z,3.50
2022-12-11T05:37:08.653Z,3.50
2022-12-11T05:40:13.601Z,3.40
2022-12-11T05:43:16.612Z,3.40
2022-12-11T05:46:22.722Z,4.30
2022-12-11T05:49:30.654Z,3.80
2022-12-11T05:52:35.502Z,3.30
2022-12-11T05:55:38.768Z,3.50
2022-12-11T05:58:44.116Z,3.60
2022-12-11T06:01:47.517Z,3.60
2022-12-11T06:04:50.805Z,3.60
2022-12-11T06:07:55.401Z,3.30
2022-12-11T06:10:59.143Z,3.40
2022-12-11T06:14:03.676Z,4.50
2022-12-11T06:17:07.307Z,3.20
2022-12-11T06:20:11.245Z,2.10
2022-12-11T06:23:15.685Z,3.10
2022-12-11T06:26:20.191Z,3.00
2022-12-11T06:29:23.093Z,2.90
2022-12-11T06:32:26.217Z,2.80
2022-12-11T06:35:29.332Z,2.80
2022-12-11T06:38:34.168Z,2.70
2022-12-11T06:41:37.156Z,2.70
2022-12-11T06:44:40.231Z,2.70
2022-12-11T06:47:43.607Z,2.60
2022-12-11T06:50:46.856Z,2.60
2022-12-11T06:53:55.935Z,2.60
2022-12-11T06:56:58.964Z,2.70
2022-12-11T07:00:02.040Z,2.70
2022-12-11T07:03:06.047Z,2.70
2022-12-11T07:06:09.023Z,2.70
2022-12-11T07:09:16.492Z,2.70
2022-12-11T07:12:19.948Z,2.70
2022-12-11T07:15:23.012Z,2.70
2022-12-11T07:18:25.998Z,2.50
2022-12-11T07:21:28.996Z,3.40
2022-12-11T07:24:33.328Z,2.60
2022-12-11T07:27:36.450Z,2.50
2022-12-11T07:30:39.639Z,2.60
2022-12-11T07:33:43.808Z,2.50
2022-12-11T07:36:47.010Z,2.50
2022-12-11T07:39:51.439Z,2.50
2022-12-11T07:42:54.612Z,2.50
2022-12-11T07:46:02.792Z,2.60
2022-12-11T07:49:07.270Z,2.60
2022-12-11T07:52:10.238Z,2.60
2022-12-11T07:55:14.792Z,3.40
2022-12-11T07:58:17.778Z,2.70
2022-12-11T08:01:26.059Z,2.70
2022-12-11T08:04:29.184Z,2.70
2022-12-11T08:07:32.150Z,2.70
2022-12-11T08:10:36.615Z,2.80
2022-12-11T08:13:40.617Z,2.70
2022-12-11T08:16:44.232Z,2.60
2022-12-11T08:19:47.285Z,2.80
2022-12-11T08:22:53.460Z,2.60
2022-12-11T08:26:04.564Z,3.70
2022-12-11T08:29:07.508Z,2.50
2022-12-11T08:32:12.617Z,2.50
2022-12-11T08:35:15.777Z,2.40
2022-12-11T08:38:23.802Z,2.40
2022-12-11T08:41:31.859Z,1.30
2022-12-11T08:44:34.802Z,2.40
2022-12-11T08:47:38.490Z,2.40
2022-12-11T08:50:41.884Z,2.30
2022-12-11T08:53:45.479Z,2.30
2022-12-11T08:56:53.520Z,2.30
2022-12-11T08:59:59.462Z,2.30
2022-12-11T09:03:02.775Z,2.50
2022-12-11T09:06:09.064Z,2.30
2022-12-11T09:09:12.609Z,2.30
2022-12-11T09:12:17.012Z,2.30
2022-12-11T09:15:20.215Z,2.60
2022-12-11T09:18:23.201Z,2.40
2022-12-11T09:21:30.896Z,2.40
2022-12-11T09:24:34.104Z,2.50
2022-12-11T09:27:38.378Z,2.50
2022-12-11T09:30:41.586Z,2.50
2022-12-11T09:33:45.547Z,2.50
2022-12-11T09:36:48.569Z,2.50
2022-12-11T09:39:51.665Z,2.60
2022-12-11T09:43:04.591Z,2.60
2022-12-11T09:46:14.422Z,2.60
2022-12-11T09:49:30.176Z,2.60
2022-12-11T09:52:41.194Z,2.70
2022-12-11T09:55:56.623Z,3.10
2022-12-11T09:59:14.188Z,2.70
2022-12-11T10:02:33.582Z,3.70
2022-12-11T10:05:48.086Z,1.90
2022-12-11T10:09:04.408Z,2.70
2022-12-11T10:12:25.089Z,2.60
2022-12-11T10:15:40.561Z,2.90
2022-12-11T10:18:43.774Z,2.50
2022-12-11T10:21:48.572Z,2.50
2022-12-11T10:25:10.586Z,2.40
2022-12-11T10:28:17.634Z,1.70
2022-12-11T10:31:33.223Z,2.30
2022-12-11T10:34:39.798Z,2.40
2022-12-11T10:37:42.760Z,2.40
2022-12-11T10:40:50.906Z,2.40
2022-12-11T10:43:55.115Z,2.40
2022-12-11T10:47:11.104Z,2.50
2022-12-11T10:50:26.491Z,2.50
2022-12-11T10:53:30.516Z,2.50
2022-12-11T10:56:37.196Z,2.50
2022-12-11T10:59:47.143Z,2.50
2022-12-11T11:02:51.904Z,2.50
2022-12-11T11:06:06.065Z,2.50
2022-12-11T11:09:31.050Z,2.50
2022-12-11T11:12:41.624Z,2.50
2022-12-11T11:15:45.803Z,3.30
2022-12-11T11:18:56.738Z,2.50
2022-12-11T11:22:07.070Z,2.50
2022-12-11T11:25:20.820Z,2.50
2022-12-11T11:28:27.943Z,2.50
2022-12-11T11:31:36.721Z,2.50
2022-12-11T11:34:41.111Z,2.50
2022-12-11T11:37:54.316Z,2.50
2022-12-11T11:41:14.678Z,2.50
2022-12-11T11:44:29.923Z,2.50
2022-12-11T11:47:41.134Z,2.50
2022-12-11T11:50:50.577Z,2.50
2022-12-11T11:54:00.077Z,2.50
2022-12-11T11:57:15.748Z,2.50
2022-12-11T12:00:22.666Z,2.50
2022-12-11T12:03:27.107Z,2.50
2022-12-11T12:06:56.663Z,2.50
2022-12-11T12:10:10.936Z,2.50
2022-12-11T12:13:48.136Z,2.60
2022-12-11T12:17:01.699Z,2.60
2022-12-11T12:20:18.466Z,2.50
2022-12-11T12:23:46.053Z,2.50
2022-12-11T12:26:57.922Z,2.40
2022-12-11T12:30:11.566Z,2.40
2022-12-11T12:33:34.143Z,2.30
2022-12-11T12:36:52.196Z,2.30
2022-12-11T12:40:15.657Z,3.20
2022-12-11T12:44:00.401Z,2.30
2022-12-11T12:47:12.342Z,2.20
2022-12-11T12:50:20.913Z,2.20
2022-12-11T12:53:28.782Z,2.20
2022-12-11T12:56:34.905Z,2.20
2022-12-11T12:59:37.967Z,2.20
2022-12-11T13:02:51.318Z,0.90
2022-12-11T13:06:01.773Z,2.10
2022-12-11T13:09:18.084Z,2.10
2022-12-11T13:12:42.516Z,2.10
2022-12-11T13:15:45.540Z,2.10
2022-12-11T13:18:49.720Z,2.10
2022-12-11T13:22:00.599Z,2.10
2022-12-11T13:25:24.950Z,2.10
2022-12-11T13:28:50.919Z,2.10
2022-12-11T13:32:00.820Z,2.10
2022-12-11T13:35:08.557Z,2.10
2022-12-11T13:38:22.036Z,2.10
2022-12-11T13:41:25.884Z,2.10
2022-12-11T13:44:34.282Z,2.00
2022-12-11T13:47:38.450Z,2.00
2022-12-11T13:50:46.123Z,1.80
2022-12-11T13:53:50.248Z,2.80
2022-12-11T13:57:00.675Z,1.70
2022-12-11T14:00:06.119Z,1.70
2022-12-11T14:03:09.542Z,1.40
2022-12-11T14:06:18.607Z,1.60
2022-12-11T14:09:27.417Z,1.90
2022-12-11T14:12:32.666Z,1.50
2022-12-11T14:15:39.497Z,1.50
2022-12-11T14:18:42.787Z,1.70
2022-12-11T14:21:58.278Z,1.40
2022-12-11T14:25:17.452Z,0.60
2022-12-11T14:28:20.602Z,1.10
2022-12-11T14:31:32.533Z,1.60
2022-12-11T14:34:43.518Z,2.00
2022-12-11T14:37:46.813Z,1.20
2022-12-11T14:40:56.780Z,0.50
2022-12-11T14:44:05.384Z,1.00
2022-12-11T14:47:16.421Z,1.70
2022-12-11T14:50:26.943Z,0.40
2022-12-11T14:53:36.721Z,0.70
2022-12-11T14:56:40.074Z,1.00
2022-12-11T14:59:49.112Z,1.00
2022-12-11T15:03:02.192Z,2.00
2022-12-11T15:06:25.675Z,0.90
2022-12-11T15:09:37.100Z,0.90
2022-12-11T15:12:46.123Z,0.90
2022-12-11T15:15:49.331Z,0.90
2022-12-11T15:18:56.842Z,0.80
2022-12-11T15:22:06.680Z,0.70
2022-12-11T15:25:22.071Z,2.00
2022-12-11T15:28:30.822Z,0.70
2022-12-11T15:31:35.983Z,1.40
2022-12-11T15:34:48.582Z,0.70
2022-12-11T15:37:54.887Z,-0.10
2022-12-11T15:40:58.960Z,1.30
2022-12-11T15:44:04.610Z,0.90
2022-12-11T15:47:14.393Z,0.50
2022-12-11T15:50:22.938Z,0.50
2022-12-11T15:53:26.084Z,0.40
2022-12-11T15:56:29.105Z,-0.50
2022-12-11T15:59:32.895Z,0.50
2022-12-11T16:02:36.025Z,0.50
2022-12-11T16:05:40.974Z,0.50
2022-12-11T16:08:44.018Z,0.50
2022-12-11T16:11:47.150Z,0.50
2022-12-11T16:14:50.212Z,0.50
2022-12-11T16:18:02.970Z,0.50
2022-12-11T16:21:07.937Z,0.50
2022-12-11T16:24:10.985Z,0.20
2022-12-11T16:27:17.322Z,0.50
2022-12-11T16:30:23.417Z,0.50
2022-12-11T16:33:26.443Z,0.40
2022-12-11T16:36:31.010Z,0.40
2022-12-11T16:39:34.692Z,0.60
2022-12-11T16:42:39.038Z,0.50
2022-12-11T16:45:43.961Z,-0.30
2022-12-11T16:48:47.309Z,0.40
2022-12-11T16:51:51.831Z,0.40
2022-12-11T16:54:55.002Z,0.60
2022-12-11T16:57:57.939Z,0.30
2022-12-11T17:01:02.963Z,0.40
2022-12-11T17:04:06.505Z,0.40
2022-12-11T17:07:11.512Z,0.40
2022-12-11T17:10:14.686Z,0.60
2022-12-11T17:13:17.744Z,0.30
2022-12-11T17:16:22.087Z,0.30
2022-12-11T17:19:25.572Z,0.20
2022-12-11T17:22:31.256Z,0.20
2022-12-11T17:25:34.231Z,0.20
2022-12-11T17:28:39.831Z,0.20
2022-12-11T17:31:43.015Z,0.10
2022-12-11T17:34:48.125Z,0.70
2022-12-11T17:37:52.749Z,0.10
2022-12-11T17:40:59.660Z,0.00
2022-12-11T17:44:03.333Z,1.40
2022-12-11T17:47:11.067Z,-0.10
2022-12-11T17:50:15.698Z,-0.40
2022-12-11T17:53:22.813Z,-0.20
2022-12-11T17:56:27.467Z,-0.20
2022-12-11T17:59:31.783Z,-0.20
2022-12-11T18:02:35.927Z,-0.20
2022-12-11T18:05:44.380Z,-0.20
2022-12-11T18:08:48.730Z,-0.30
2022-12-11T18:11:51.877Z,-0.30
2022-12-11T18:14:54.912Z,-0.30
2022-12-11T18:17:58.821Z,-0.40
2022-12-11T18:21:02.067Z,0.10
2022-12-11T18:24:08.638Z,-0.40
2022-12-11T18:27:14.322Z,-0.40
2022-12-11T18:30:17.517Z,-0.40
2022-12-11T18:33:20.579Z,-0.50
2022-12-11T18:36:24.041Z,-1.90
2022-12-11T18:39:28.347Z,-0.60
2022-12-11T18:42:33.562Z,0.70
2022-12-11T18:45:40.548Z,-0.60
2022-12-11T18:48:45.396Z,-0.70
2022-12-11T18:51:48.716Z,-0.60
2022-12-11T18:54:53.534Z,-0.70
2022-12-11T18:57:57.155Z,-0.70
2022-12-11T19:01:08.613Z,-0.70
2022-12-11T19:04:12.846Z,-0.80
2022-12-11T19:07:17.770Z,-0.80
2022-12-11T19:10:22.152Z,-0.80
2022-12-11T19:13:25.379Z,0.30
2022-12-11T19:16:33.589Z,-0.80
2022-12-11T19:19:37.476Z,-0.90
2022-12-11T19:22:40.793Z,-0.90
2022-12-11T19:25:47.793Z,-0.80
2022-12-11T19:28:52.662Z,-0.90
2022-12-11T19:31:57.519Z,-0.40
2022-12-11T19:35:01.221Z,-0.80
2022-12-11T19:38:08.874Z,-0.90
2022-12-11T19:41:19.098Z,-0.90
2022-12-11T19:44:24.320Z,-0.90
2022-12-11T19:47:30.112Z,-0.90
2022-12-11T19:50:35.550Z,-0.90
2022-12-11T19:53:38.998Z,-1.00
2022-12-11T19:56:44.217Z,-1.00
2022-12-11T19:59:50.267Z,-1.00
2022-12-11T20:02:55.629Z,-1.10
2022-12-11T20:06:01.979Z,-1.10
2022-12-11T20:09:07.313Z,-1.10
2022-12-11T20:12:11.721Z,-1.10
2022-12-11T20:15:16.576Z,-1.10
2022-12-11T20:18:19.605Z,-1.10
2022-12-11T20:21:23.574Z,0.10
2022-12-11T20:24:26.514Z,-1.00
2022-12-11T20:27:30.885Z,-1.10
2022-12-11T20:30:34.792Z,0.40
2022-12-11T20:33:38.116Z,-1.20
2022-12-11T20:36:41.184Z,-2.00
2022-12-11T20:39:44.238Z,-1.10
2022-12-11T20:42:48.581Z,-1.10
2022-12-11T20:45:52.357Z,-1.10
2022-12-11T20:48:58.383Z,-0.30
2022-12-11T20:52:01.486Z,-1.10
2022-12-11T20:55:05.028Z,-0.10
2022-12-11T20:58:09.958Z,-1.10
2022-12-11T21:01:16.036Z,-1.10
2022-12-11T21:04:19.326Z,-1.10
2022-12-11T21:07:22.306Z,-0.10
2022-12-11T21:10:25.567Z,-1.10
2022-12-11T21:13:30.366Z,-1.10
2022-12-11T21:16:36.717Z,-1.10
2022-12-11T21:19:39.789Z,-1.10
2022-12-11T21:22:42.743Z,-1.00
2022-12-11T21:25:45.682Z,-1.00
2022-12-11T21:28:50.470Z,-0.90
2022-12-11T21:31:54.275Z,-0.90
2022-12-11T21:34:59.486Z,0.10
2022-12-11T21:38:02.696Z,-0.90
2022-12-11T21:41:13.504Z,-0.80
2022-12-11T21:47:41.114Z,0.40
2022-12-11T21:50:44.203Z,-1.00
2022-12-11T21:53:47.688Z,-1.00
2022-12-11T21:56:50.648Z,-1.00
2022-12-11T21:59:55.111Z,-1.00
2022-12-11T22:02:58.179Z,-0.90
2022-12-11T22:06:01.243Z,-0.90
2022-12-11T22:09:05.870Z,-1.00
2022-12-11T22:12:09.417Z,-0.80
2022-12-11T22:15:14.208Z,-0.80
2022-12-11T22:18:17.362Z,-0.60
2022-12-11T22:21:20.897Z,-0.80
2022-12-11T22:24:23.955Z,-0.80
2022-12-11T22:27:26.867Z,-0.90
2022-12-11T22:30:31.328Z,-0.80
2022-12-11T22:33:34.311Z,-0.80
2022-12-11T22:36:38.614Z,-0.80
2022-12-11T22:39:41.700Z,-0.70
2022-12-11T22:42:45.126Z,-0.70
2022-12-11T22:45:49.631Z,-0.60
2022-12-11T22:48:54.403Z,-0.60
2022-12-11T22:51:58.489Z,-0.60
2022-12-11T22:55:02.240Z,-0.60
2022-12-11T22:58:05.426Z,-0.60
2022-12-11T23:01:13.637Z,-0.70
2022-12-11T23:04:16.672Z,-0.60
2022-12-11T23:07:20.816Z,-0.60
2022-12-11T23:10:24.366Z,-0.60
2022-12-11T23:13:27.468Z,-0.60
2022-12-11T23:16:31.913Z,-0.60
2022-12-11T23:19:35.001Z,-0.70
2022-12-11T23:22:38.455Z,-0.70
2022-12-11T23:25:42.267Z,-0.70
2022-12-11T23:28:45.936Z,-0.70
2022-12-11T23:31:50.440Z,-0.20
2022-12-11T23:34:53.396Z,-0.70
2022-12-11T23:37:56.462Z,-0.70
2022-12-11T23:41:02.001Z,-0.70
2022-12-11T23:44:05.634Z,-0.80
2022-12-11T23:47:10.071Z,-0.80
2022-12-11T23:50:13.099Z,-0.80
2022-12-11T23:53:16.315Z,-0.80
2022-12-11T23:56:24.510Z,-0.80
2022-12-11T23:59:27.538Z,-0.90
